createdAt,value
2017-11-29T00:00:53.458Z,14.60
2017-11-29T00:01:55.978Z,8.77
2017-11-29T00:02:58.542Z,10.65
2017-11-29T00:04:01.248Z,11.32
2017-11-29T00:05:03.809Z,10.70
2017-11-29T00:06:06.344Z,9.52
2017-11-29T00:07:08.879Z,11.65
2017-11-29T00:08:12.173Z,9.68
2017-11-29T00:09:15.473Z,9.75
2017-11-29T00:10:18.024Z,8.02
2017-11-29T00:11:20.551Z,12.70
2017-11-29T00:12:23.107Z,10.20
2017-11-29T00:13:25.623Z,9.15
2017-11-29T00:14:28.910Z,10.27
2017-11-29T00:15:31.496Z,9.75
2017-11-29T00:16:34.058Z,9.25
2017-11-29T00:17:36.573Z,21.02
2017-11-29T00:18:39.091Z,10.43
2017-11-29T00:19:41.601Z,9.55
2017-11-29T00:20:44.130Z,12.10
2017-11-29T00:21:46.679Z,6.95
2017-11-29T00:22:49.194Z,13.43
2017-11-29T00:23:51.709Z,13.50
2017-11-29T00:24:54.229Z,10.98
2017-11-29T00:25:56.754Z,10.93
2017-11-29T00:26:59.312Z,9.68
2017-11-29T00:28:01.935Z,8.65
2017-11-29T00:29:04.452Z,9.65
2017-11-29T00:30:06.980Z,15.40
2017-11-29T00:31:09.641Z,9.75
2017-11-29T00:32:12.198Z,10.90
2017-11-29T00:33:14.723Z,12.02
2017-11-29T00:34:17.276Z,8.13
2017-11-29T00:35:19.820Z,20.73
2017-11-29T00:36:23.103Z,6.10
2017-11-29T00:37:26.806Z,10.35
2017-11-29T00:38:30.091Z,10.68
2017-11-29T00:39:33.370Z,10.68
2017-11-29T00:40:36.658Z,6.60
2017-11-29T00:41:39.934Z,8.35
2017-11-29T00:42:43.258Z,12.30
2017-11-29T00:43:45.778Z,8.63
2017-11-29T00:44:49.054Z,8.55
2017-11-29T00:45:51.566Z,8.93
2017-11-29T00:46:54.087Z,7.00
2017-11-29T00:47:56.655Z,8.18
2017-11-29T00:48:59.186Z,11.27
2017-11-29T00:50:01.724Z,11.10
2017-11-29T00:51:04.256Z,11.00
2017-11-29T00:52:07.544Z,10.38
2017-11-29T00:53:10.863Z,10.15
2017-11-29T00:54:13.380Z,10.32
2017-11-29T00:55:15.918Z,8.20
2017-11-29T00:56:18.441Z,10.02
2017-11-29T00:57:20.964Z,10.38
2017-11-29T00:58:23.518Z,8.73
2017-11-29T00:59:26.039Z,9.30
2017-11-29T01:00:28.575Z,7.45
2017-11-29T01:01:31.099Z,9.60
2017-11-29T01:02:33.650Z,7.37
2017-11-29T01:03:36.214Z,11.02
2017-11-29T01:04:38.740Z,9.65
2017-11-29T01:05:41.262Z,11.12
2017-11-29T01:06:43.816Z,11.75
2017-11-29T01:07:46.331Z,8.63
2017-11-29T01:08:48.878Z,9.60
2017-11-29T01:09:51.406Z,7.78
2017-11-29T01:10:53.969Z,10.55
2017-11-29T01:11:56.494Z,9.70
2017-11-29T01:12:59.016Z,14.38
2017-11-29T01:14:01.545Z,18.87
2017-11-29T01:15:04.824Z,12.60
2017-11-29T01:16:08.203Z,9.57
2017-11-29T01:17:10.766Z,7.80
2017-11-29T01:18:13.290Z,10.23
2017-11-29T01:19:15.803Z,9.82
2017-11-29T01:20:18.334Z,7.62
2017-11-29T01:21:20.864Z,8.52
2017-11-29T01:22:23.419Z,7.97
2017-11-29T01:23:26.713Z,10.23
2017-11-29T01:24:29.241Z,8.77
2017-11-29T01:25:31.899Z,11.32
2017-11-29T01:26:34.421Z,7.40
2017-11-29T01:27:36.962Z,7.22
2017-11-29T01:28:40.249Z,12.23
2017-11-29T01:29:43.530Z,7.85
2017-11-29T01:30:46.810Z,10.52
2017-11-29T01:31:50.119Z,9.35
2017-11-29T01:32:52.639Z,12.13
2017-11-29T01:33:55.155Z,8.38
2017-11-29T01:34:57.672Z,7.68
2017-11-29T01:36:00.202Z,6.75
2017-11-29T01:37:02.756Z,6.00
2017-11-29T01:38:05.291Z,8.50
2017-11-29T01:39:08.624Z,8.63
2017-11-29T01:40:11.151Z,9.75
2017-11-29T01:41:14.475Z,7.85
2017-11-29T01:42:17.770Z,9.35
2017-11-29T01:43:20.288Z,5.43
2017-11-29T01:44:22.819Z,7.20
2017-11-29T01:45:25.346Z,9.05
2017-11-29T01:46:27.909Z,8.85
2017-11-29T01:47:30.459Z,8.40
2017-11-29T01:48:32.981Z,6.95
2017-11-29T01:49:35.546Z,8.60
2017-11-29T01:50:38.077Z,6.82
2017-11-29T01:51:40.634Z,7.93
2017-11-29T01:52:43.159Z,9.90
2017-11-29T01:53:45.711Z,6.40
2017-11-29T01:54:48.267Z,6.87
2017-11-29T01:55:50.790Z,7.37
2017-11-29T01:56:53.339Z,7.72
2017-11-29T01:57:55.890Z,9.15
2017-11-29T01:58:58.427Z,8.93
2017-11-29T02:00:00.947Z,10.50
2017-11-29T02:01:03.456Z,7.03
2017-11-29T02:02:05.976Z,8.35
2017-11-29T02:03:08.538Z,10.80
2017-11-29T02:04:11.078Z,8.48
2017-11-29T02:05:13.603Z,11.68
2017-11-29T02:06:26.879Z,8.70
2017-11-29T02:07:30.167Z,10.73
2017-11-29T02:08:33.491Z,9.18
2017-11-29T02:09:36.004Z,8.82
2017-11-29T02:10:38.534Z,11.60
2017-11-29T02:11:41.049Z,12.95
2017-11-29T02:12:44.364Z,11.30
2017-11-29T02:13:46.918Z,10.90
2017-11-29T02:14:49.438Z,8.27
2017-11-29T02:15:51.950Z,11.07
2017-11-29T02:16:54.510Z,11.85
2017-11-29T02:17:57.028Z,11.52
2017-11-29T02:18:59.556Z,12.07
2017-11-29T02:20:02.098Z,9.63
2017-11-29T02:21:05.387Z,12.48
2017-11-29T02:22:08.683Z,10.55
2017-11-29T02:23:11.200Z,11.68
2017-11-29T02:24:13.718Z,10.68
2017-11-29T02:25:16.278Z,8.27
2017-11-29T02:26:18.812Z,11.68
2017-11-29T02:27:21.344Z,11.00
2017-11-29T02:28:23.850Z,12.90
2017-11-29T02:29:26.370Z,13.95
2017-11-29T02:30:28.921Z,9.20
2017-11-29T02:31:31.441Z,10.25
2017-11-29T02:32:33.964Z,10.05
2017-11-29T02:33:36.511Z,10.52
2017-11-29T02:34:39.030Z,9.82
2017-11-29T02:35:41.585Z,8.27
2017-11-29T02:36:44.103Z,11.43
2017-11-29T02:37:46.615Z,9.20
2017-11-29T02:38:49.208Z,8.93
2017-11-29T02:40:03.642Z,9.55
2017-11-29T02:41:17.857Z,8.93
2017-11-29T02:42:41.187Z,10.48
2017-11-29T02:43:43.712Z,8.50
2017-11-29T02:44:47.041Z,12.02
2017-11-29T02:45:49.592Z,10.82
2017-11-29T02:46:52.112Z,11.20
2017-11-29T02:47:54.634Z,12.30
2017-11-29T02:48:57.155Z,10.60
2017-11-29T02:49:59.717Z,12.65
2017-11-29T02:51:02.269Z,8.82
2017-11-29T02:52:04.796Z,23.05
2017-11-29T02:53:07.316Z,10.45
2017-11-29T02:54:09.838Z,11.65
2017-11-29T02:55:12.388Z,11.93
2017-11-29T02:56:14.911Z,7.95
2017-11-29T02:57:17.440Z,9.85
2017-11-29T02:58:19.950Z,9.75
2017-11-29T02:59:22.470Z,11.12
2017-11-29T03:00:25.019Z,20.70
2017-11-29T03:01:27.544Z,9.93
2017-11-29T03:02:30.063Z,11.43
2017-11-29T03:03:32.581Z,12.68
2017-11-29T03:04:35.099Z,12.48
2017-11-29T03:05:37.667Z,12.52
2017-11-29T03:06:40.216Z,9.95
2017-11-29T03:07:42.730Z,12.37
2017-11-29T03:08:45.259Z,10.13
2017-11-29T03:09:47.811Z,15.00
2017-11-29T03:10:50.375Z,8.18
2017-11-29T03:11:52.892Z,9.90
2017-11-29T03:12:55.415Z,10.65
2017-11-29T03:13:57.944Z,9.57
2017-11-29T03:15:01.241Z,10.95
2017-11-29T03:16:03.807Z,10.70
2017-11-29T03:17:07.087Z,9.43
2017-11-29T03:18:10.369Z,19.85
2017-11-29T03:19:13.655Z,9.52
2017-11-29T03:20:16.965Z,11.57
2017-11-29T03:21:19.480Z,11.50
2017-11-29T03:22:21.999Z,10.90
2017-11-29T03:23:24.518Z,15.82
2017-11-29T03:24:27.070Z,14.60
2017-11-29T03:25:29.595Z,9.93
2017-11-29T03:26:32.161Z,10.93
2017-11-29T03:27:34.687Z,10.13
2017-11-29T03:28:37.202Z,10.30
2017-11-29T03:29:39.758Z,12.52
2017-11-29T03:30:42.273Z,8.82
2017-11-29T03:31:44.802Z,9.90
2017-11-29T03:32:47.323Z,11.23
2017-11-29T03:33:50.606Z,12.23
2017-11-29T03:34:53.918Z,11.88
2017-11-29T03:35:56.449Z,10.40
2017-11-29T03:36:58.983Z,12.45
2017-11-29T03:38:01.507Z,12.55
2017-11-29T03:39:04.042Z,10.07
2017-11-29T03:40:06.623Z,14.93
2017-11-29T03:41:09.912Z,11.12
2017-11-29T03:42:13.203Z,10.85
2017-11-29T03:43:16.506Z,14.25
2017-11-29T03:44:19.027Z,11.48
2017-11-29T03:45:21.586Z,15.00
2017-11-29T03:46:24.107Z,18.83
2017-11-29T03:47:26.642Z,10.88
2017-11-29T03:48:29.936Z,14.55
2017-11-29T03:49:33.225Z,12.02
2017-11-29T03:50:35.797Z,11.95
2017-11-29T03:51:38.351Z,14.55
2017-11-29T03:52:41.634Z,9.05
2017-11-29T03:53:44.923Z,11.55
2017-11-29T03:54:47.465Z,10.15
2017-11-29T03:55:50.004Z,12.65
2017-11-29T03:56:53.297Z,11.93
2017-11-29T03:57:55.813Z,13.50
2017-11-29T03:58:58.349Z,14.25
2017-11-29T04:00:00.916Z,13.00
2017-11-29T04:01:04.239Z,21.35
2017-11-29T04:02:06.778Z,13.93
2017-11-29T04:03:10.114Z,18.05
2017-11-29T04:04:12.644Z,15.23
2017-11-29T04:05:15.166Z,13.85
2017-11-29T04:06:17.691Z,14.50
2017-11-29T04:07:20.226Z,15.57
2017-11-29T04:08:23.562Z,11.70
2017-11-29T04:09:26.087Z,11.57
2017-11-29T04:10:28.598Z,13.82
2017-11-29T04:11:31.121Z,13.43
2017-11-29T04:12:33.656Z,10.90
2017-11-29T04:13:36.222Z,17.30
2017-11-29T04:14:38.740Z,12.60
2017-11-29T04:15:41.254Z,14.65
2017-11-29T04:16:43.795Z,11.90
2017-11-29T04:17:46.307Z,13.02
2017-11-29T04:18:49.638Z,12.98
2017-11-29T04:19:52.156Z,14.27
2017-11-29T04:20:55.448Z,13.30
2017-11-29T04:21:57.982Z,14.05
2017-11-29T04:23:00.498Z,12.65
2017-11-29T04:24:03.064Z,13.43
2017-11-29T04:25:05.582Z,16.67
2017-11-29T04:26:08.098Z,13.85
2017-11-29T04:27:10.619Z,13.52
2017-11-29T04:28:13.251Z,12.70
2017-11-29T04:29:15.807Z,10.57
2017-11-29T04:30:18.366Z,12.90
2017-11-29T04:31:20.933Z,10.05
2017-11-29T04:32:23.471Z,12.85
2017-11-29T04:33:25.989Z,12.23
2017-11-29T04:34:28.511Z,11.70
2017-11-29T04:35:31.043Z,12.68
2017-11-29T04:36:33.606Z,13.85
2017-11-29T04:37:36.154Z,19.58
2017-11-29T04:38:38.707Z,11.80
2017-11-29T04:39:41.261Z,12.20
2017-11-29T04:40:43.775Z,14.95
2017-11-29T04:41:46.300Z,12.35
2017-11-29T04:42:48.852Z,12.95
2017-11-29T04:45:00.286Z,13.93
2017-11-29T04:46:02.814Z,12.95
2017-11-29T04:47:05.319Z,23.23
2017-11-29T04:48:07.844Z,13.38
2017-11-29T04:49:10.407Z,11.15
2017-11-29T04:50:12.991Z,13.65
2017-11-29T04:51:15.520Z,10.68
2017-11-29T04:52:18.108Z,12.32
2017-11-29T04:53:20.650Z,12.32
2017-11-29T04:54:23.196Z,13.62
2017-11-29T04:55:26.486Z,12.18
2017-11-29T04:56:29.767Z,15.45
2017-11-29T04:57:33.060Z,18.00
2017-11-29T04:58:36.374Z,13.77
2017-11-29T04:59:38.895Z,15.05
2017-11-29T05:00:42.194Z,12.98
2017-11-29T05:01:45.471Z,18.83
2017-11-29T05:02:48.065Z,13.60
2017-11-29T05:03:50.627Z,13.13
2017-11-29T05:04:53.147Z,12.40
2017-11-29T05:05:55.713Z,18.92
2017-11-29T05:06:58.231Z,12.20
2017-11-29T05:08:00.756Z,13.50
2017-11-29T05:09:04.056Z,12.55
2017-11-29T05:10:06.589Z,13.40
2017-11-29T05:11:09.147Z,15.30
2017-11-29T05:12:11.686Z,16.62
2017-11-29T05:13:14.214Z,12.00
2017-11-29T05:14:17.504Z,14.60
2017-11-29T05:15:20.828Z,14.35
2017-11-29T05:16:23.351Z,21.17
2017-11-29T05:17:26.640Z,13.30
2017-11-29T05:18:29.935Z,17.48
2017-11-29T05:19:32.455Z,14.07
2017-11-29T05:20:35.018Z,12.35
2017-11-29T05:21:37.538Z,13.80
2017-11-29T05:22:40.055Z,12.50
2017-11-29T05:23:42.582Z,15.70
2017-11-29T05:24:45.107Z,12.75
2017-11-29T05:25:48.423Z,12.98
2017-11-29T05:26:50.949Z,14.27
2017-11-29T05:27:53.466Z,13.70
2017-11-29T05:28:55.979Z,11.80
2017-11-29T05:29:58.516Z,12.18
2017-11-29T05:31:01.087Z,11.77
2017-11-29T05:32:03.611Z,13.88
2017-11-29T05:33:06.123Z,13.40
2017-11-29T05:34:08.638Z,14.07
2017-11-29T05:35:11.160Z,15.43
2017-11-29T05:36:13.718Z,13.57
2017-11-29T05:37:16.233Z,14.93
2017-11-29T05:38:18.750Z,14.05
2017-11-29T05:39:21.263Z,13.50
2017-11-29T05:40:23.811Z,12.52
2017-11-29T05:41:27.090Z,13.85
2017-11-29T05:42:30.394Z,13.25
2017-11-29T05:43:33.718Z,12.73
2017-11-29T05:44:36.242Z,12.23
2017-11-29T05:45:39.530Z,12.32
2017-11-29T05:46:42.046Z,12.35
2017-11-29T05:47:44.577Z,14.57
2017-11-29T05:48:47.154Z,19.37
2017-11-29T05:49:49.673Z,15.77
2017-11-29T05:50:52.201Z,13.50
2017-11-29T05:51:54.726Z,13.02
2017-11-29T05:52:57.259Z,12.77
2017-11-29T05:53:59.824Z,15.63
2017-11-29T05:55:02.346Z,13.57
2017-11-29T05:56:04.864Z,15.50
2017-11-29T05:57:08.156Z,17.17
2017-11-29T05:58:11.430Z,16.48
2017-11-29T05:59:13.992Z,14.40
2017-11-29T06:00:16.523Z,13.73
2017-11-29T06:01:19.055Z,13.52
2017-11-29T06:02:22.460Z,17.80
2017-11-29T06:03:24.982Z,12.52
2017-11-29T06:04:27.538Z,13.75
2017-11-29T06:05:30.080Z,13.35
2017-11-29T06:06:32.682Z,12.57
2017-11-29T06:07:35.191Z,12.48
2017-11-29T06:08:37.738Z,13.85
2017-11-29T06:09:40.261Z,10.52
2017-11-29T06:10:42.783Z,14.05
2017-11-29T06:11:45.436Z,12.15
2017-11-29T06:12:48.722Z,15.13
2017-11-29T06:13:52.005Z,11.68
2017-11-29T06:14:55.298Z,12.10
2017-11-29T06:15:57.817Z,15.48
2017-11-29T06:17:00.385Z,14.98
2017-11-29T06:18:02.910Z,14.52
2017-11-29T06:19:05.426Z,14.20
2017-11-29T06:20:07.949Z,17.35
2017-11-29T06:21:10.482Z,14.65
2017-11-29T06:22:13.820Z,15.15
2017-11-29T06:23:16.339Z,12.35
2017-11-29T06:24:18.859Z,14.43
2017-11-29T06:25:21.387Z,15.95
2017-11-29T06:26:23.919Z,19.90
2017-11-29T06:27:27.243Z,13.40
2017-11-29T06:28:29.756Z,14.20
2017-11-29T06:29:32.281Z,18.23
2017-11-29T06:30:34.826Z,15.27
2017-11-29T06:31:37.366Z,11.70
2017-11-29T06:32:40.689Z,13.05
2017-11-29T06:33:43.215Z,18.48
2017-11-29T06:34:46.527Z,14.35
2017-11-29T06:35:49.073Z,13.05
2017-11-29T06:36:52.360Z,15.70
2017-11-29T06:37:54.941Z,13.05
2017-11-29T06:38:57.518Z,14.18
2017-11-29T06:40:00.037Z,16.30
2017-11-29T06:41:02.635Z,14.82
2017-11-29T06:42:05.150Z,18.08
2017-11-29T06:43:07.701Z,15.40
2017-11-29T06:44:10.244Z,14.40
2017-11-29T06:45:12.766Z,14.07
2017-11-29T06:46:15.284Z,13.77
2017-11-29T06:47:17.808Z,21.73
2017-11-29T06:48:20.362Z,16.40
2017-11-29T06:49:22.907Z,12.27
2017-11-29T06:50:25.435Z,12.52
2017-11-29T06:51:27.952Z,11.32
2017-11-29T06:52:30.471Z,11.95
2017-11-29T06:53:32.990Z,10.90
2017-11-29T06:54:35.560Z,10.52
2017-11-29T06:55:38.072Z,11.63
2017-11-29T06:56:40.600Z,12.88
2017-11-29T06:57:43.121Z,10.68
2017-11-29T06:58:45.646Z,15.82
2017-11-29T06:59:48.972Z,13.38
2017-11-29T07:00:51.495Z,11.23
2017-11-29T07:01:54.810Z,12.80
2017-11-29T07:02:57.335Z,13.13
2017-11-29T07:04:00.620Z,12.18
2017-11-29T07:05:03.938Z,14.18
2017-11-29T07:06:06.450Z,11.57
2017-11-29T07:07:09.011Z,11.38
2017-11-29T07:08:11.532Z,11.25
2017-11-29T07:09:14.054Z,14.77
2017-11-29T07:10:16.583Z,11.90
2017-11-29T07:11:19.114Z,15.25
2017-11-29T07:12:22.434Z,13.73
2017-11-29T07:13:24.953Z,16.73
2017-11-29T07:14:28.242Z,13.10
2017-11-29T07:15:31.526Z,17.25
2017-11-29T07:16:34.853Z,18.83
2017-11-29T07:17:37.378Z,14.02
2017-11-29T07:18:40.670Z,15.13
2017-11-29T07:19:44.000Z,19.80
2017-11-29T07:20:46.533Z,13.52
2017-11-29T07:21:49.105Z,18.45
2017-11-29T07:22:51.627Z,19.77
2017-11-29T07:23:54.242Z,22.67
2017-11-29T07:24:56.790Z,18.35
2017-11-29T07:25:59.314Z,21.37
2017-11-29T07:27:01.830Z,20.23
2017-11-29T07:28:04.358Z,16.35
2017-11-29T07:29:06.879Z,20.08
2017-11-29T07:30:09.432Z,19.52
2017-11-29T07:31:11.952Z,17.62
2017-11-29T07:32:14.771Z,19.25
2017-11-29T07:33:17.294Z,16.52
2017-11-29T07:34:19.855Z,25.80
2017-11-29T07:35:22.380Z,20.62
2017-11-29T07:36:24.923Z,19.40
2017-11-29T07:37:27.452Z,24.00
2017-11-29T07:38:29.974Z,19.37
2017-11-29T07:39:32.520Z,20.90
2017-11-29T07:40:35.039Z,19.15
2017-11-29T07:41:37.608Z,23.20
2017-11-29T07:42:40.131Z,21.05
2017-11-29T07:43:42.675Z,19.77
2017-11-29T07:44:45.203Z,18.80
2017-11-29T07:45:47.727Z,22.23
2017-11-29T07:46:50.276Z,19.90
2017-11-29T07:47:52.801Z,19.83
2017-11-29T07:48:55.320Z,21.67
2017-11-29T07:49:57.893Z,20.12
2017-11-29T07:51:00.457Z,17.65
2017-11-29T07:52:03.012Z,20.98
2017-11-29T07:53:05.543Z,17.92
2017-11-29T07:54:08.066Z,20.52
2017-11-29T07:55:10.599Z,17.80
2017-11-29T07:56:13.886Z,16.67
2017-11-29T07:57:17.215Z,17.77
2017-11-29T07:58:19.746Z,13.93
2017-11-29T07:59:22.275Z,15.82
2017-11-29T08:00:24.801Z,16.37
2017-11-29T08:01:27.322Z,24.42
2017-11-29T08:02:30.639Z,18.70
2017-11-29T08:03:33.182Z,19.62
2017-11-29T08:04:36.472Z,14.57
2017-11-29T08:05:39.767Z,17.70
2017-11-29T08:06:42.298Z,12.90
2017-11-29T08:07:44.862Z,12.02
2017-11-29T08:08:47.377Z,16.55
2017-11-29T08:09:49.891Z,15.02
2017-11-29T08:10:52.428Z,17.10
2017-11-29T08:11:54.975Z,14.10
2017-11-29T08:12:57.640Z,16.08
2017-11-29T08:14:00.166Z,14.07
2017-11-29T08:15:03.464Z,16.33
2017-11-29T08:16:06.014Z,18.90
2017-11-29T08:17:08.536Z,17.83
2017-11-29T08:18:11.104Z,18.15
2017-11-29T08:19:13.628Z,22.20
2017-11-29T08:20:16.928Z,17.17
2017-11-29T08:21:19.468Z,17.62
2017-11-29T08:22:22.755Z,15.77
2017-11-29T08:23:26.077Z,16.67
2017-11-29T08:24:28.640Z,20.80
2017-11-29T08:25:31.161Z,17.65
2017-11-29T08:26:34.487Z,17.67
2017-11-29T08:27:37.014Z,24.92
2017-11-29T08:28:39.530Z,12.90
2017-11-29T08:29:42.183Z,14.52
2017-11-29T08:30:44.715Z,14.68
2017-11-29T08:31:47.242Z,31.40
2017-11-29T08:32:56.749Z,19.17
2017-11-29T08:33:59.290Z,14.93
2017-11-29T08:35:02.630Z,13.93
2017-11-29T08:36:05.150Z,13.70
2017-11-29T08:37:07.684Z,14.73
2017-11-29T08:38:10.223Z,14.25
2017-11-29T08:39:12.746Z,15.52
2017-11-29T08:40:15.303Z,14.87
2017-11-29T08:41:18.596Z,13.32
2017-11-29T08:42:21.880Z,15.13
2017-11-29T08:43:24.410Z,13.40
2017-11-29T08:44:26.965Z,16.35
2017-11-29T08:45:29.519Z,14.48
2017-11-29T08:46:32.043Z,18.45
2017-11-29T08:47:34.599Z,12.32
2017-11-29T08:48:37.882Z,15.85
2017-11-29T08:49:41.170Z,14.00
2017-11-29T08:50:44.462Z,13.48
2017-11-29T08:51:46.985Z,18.50
2017-11-29T08:52:49.539Z,14.35
2017-11-29T08:53:52.077Z,16.60
2017-11-29T08:54:54.593Z,13.60
2017-11-29T08:55:57.179Z,16.17
2017-11-29T08:57:00.461Z,16.50
2017-11-29T08:58:03.750Z,14.02
2017-11-29T08:59:07.048Z,22.40
2017-11-29T09:00:09.574Z,13.40
2017-11-29T09:01:12.131Z,14.02
2017-11-29T09:02:14.650Z,13.95
2017-11-29T09:03:17.170Z,14.15
2017-11-29T09:04:19.713Z,14.35
2017-11-29T09:05:22.235Z,13.98
2017-11-29T09:06:25.554Z,16.05
2017-11-29T09:07:28.088Z,16.27
2017-11-29T09:08:30.632Z,13.68
2017-11-29T09:09:33.160Z,15.65
2017-11-29T09:10:35.731Z,17.83
2017-11-29T09:11:38.309Z,17.20
2017-11-29T09:12:40.835Z,14.40
2017-11-29T09:13:43.372Z,19.30
2017-11-29T09:14:46.660Z,16.02
2017-11-29T09:15:49.947Z,17.15
2017-11-29T09:16:53.287Z,15.20
2017-11-29T09:17:55.951Z,18.12
2017-11-29T09:18:58.468Z,22.35
2017-11-29T09:20:00.999Z,15.50
2017-11-29T09:21:03.560Z,13.82
2017-11-29T09:22:06.083Z,16.98
2017-11-29T09:23:08.637Z,19.40
2017-11-29T09:24:11.922Z,17.90
2017-11-29T09:25:15.211Z,19.60
2017-11-29T09:26:17.755Z,15.18
2017-11-29T09:27:21.040Z,24.67
2017-11-29T09:28:24.363Z,18.33
2017-11-29T09:29:26.925Z,14.95
2017-11-29T09:30:29.469Z,22.08
2017-11-29T09:31:32.774Z,17.25
2017-11-29T09:32:35.305Z,20.90
2017-11-29T09:33:38.594Z,18.75
2017-11-29T09:34:41.955Z,16.77
2017-11-29T09:35:44.479Z,19.85
2017-11-29T09:36:47.003Z,15.85
2017-11-29T09:37:50.294Z,17.00
2017-11-29T09:38:53.579Z,14.25
2017-11-29T09:39:57.062Z,17.75
2017-11-29T09:41:00.350Z,19.83
2017-11-29T09:42:03.634Z,16.70
2017-11-29T09:43:06.925Z,21.83
2017-11-29T09:44:10.217Z,18.95
2017-11-29T09:45:12.777Z,20.98
2017-11-29T09:46:16.062Z,21.75
2017-11-29T09:47:19.347Z,18.87
2017-11-29T09:48:22.643Z,16.58
2017-11-29T09:49:25.158Z,16.67
2017-11-29T09:50:27.726Z,22.65
2017-11-29T09:51:30.259Z,18.52
2017-11-29T09:52:32.793Z,16.42
2017-11-29T09:53:36.078Z,17.52
2017-11-29T09:54:39.358Z,26.83
2017-11-29T09:55:42.687Z,21.37
2017-11-29T09:56:45.207Z,28.77
2017-11-29T09:57:48.499Z,26.77
2017-11-29T09:58:51.015Z,19.70
2017-11-29T09:59:53.547Z,21.15
2017-11-29T10:00:56.107Z,31.27
2017-11-29T10:01:58.626Z,26.00
2017-11-29T10:03:01.145Z,27.98
2017-11-29T10:04:03.718Z,26.67
2017-11-29T10:05:06.235Z,29.70
2017-11-29T10:06:09.535Z,31.98
2017-11-29T10:07:12.820Z,23.98
2017-11-29T10:08:16.102Z,30.77
2017-11-29T10:09:19.438Z,21.95
2017-11-29T10:10:21.959Z,28.42
2017-11-29T10:11:24.487Z,34.88
2017-11-29T10:12:27.018Z,33.15
2017-11-29T10:13:29.562Z,28.75
2017-11-29T10:14:32.856Z,34.50
2017-11-29T10:15:35.435Z,31.25
2017-11-29T10:16:37.958Z,34.28
2017-11-29T10:17:41.242Z,25.40
2017-11-29T10:18:44.526Z,28.20
2017-11-29T10:19:47.811Z,30.37
2017-11-29T10:20:51.225Z,31.17
2017-11-29T10:21:53.762Z,28.67
2017-11-29T10:22:57.055Z,39.53
2017-11-29T10:24:00.343Z,34.33
2017-11-29T10:25:03.643Z,26.60
2017-11-29T10:26:06.195Z,25.23
2017-11-29T10:27:08.751Z,27.45
2017-11-29T10:28:12.059Z,27.08
2017-11-29T10:29:14.580Z,23.58
2017-11-29T10:30:17.093Z,26.30
2017-11-29T10:31:19.611Z,26.52
2017-11-29T10:32:22.163Z,19.98
2017-11-29T10:33:24.682Z,22.17
2017-11-29T10:34:27.209Z,18.08
2017-11-29T10:35:29.731Z,21.17
2017-11-29T10:36:32.424Z,21.62
2017-11-29T10:37:34.943Z,20.12
2017-11-29T10:38:37.467Z,19.98
2017-11-29T10:39:39.998Z,31.65
2017-11-29T10:40:42.524Z,18.45
2017-11-29T10:41:45.860Z,20.92
2017-11-29T10:42:48.394Z,20.25
2017-11-29T10:43:50.911Z,17.25
2017-11-29T10:44:53.478Z,20.37
2017-11-29T10:45:56.007Z,16.98
2017-11-29T10:46:58.540Z,18.05
2017-11-29T10:48:01.113Z,18.70
2017-11-29T10:49:04.402Z,17.80
2017-11-29T10:50:07.698Z,15.40
2017-11-29T10:51:10.273Z,16.85
2017-11-29T10:52:12.839Z,21.80
2017-11-29T10:53:15.412Z,15.25
2017-11-29T10:54:17.954Z,20.62
2017-11-29T10:55:21.232Z,18.20
2017-11-29T10:56:24.527Z,16.58
2017-11-29T10:57:27.117Z,13.68
2017-11-29T10:58:29.641Z,16.95
2017-11-29T10:59:32.959Z,17.15
2017-11-29T11:00:35.476Z,18.42
2017-11-29T11:01:37.990Z,15.95
2017-11-29T11:02:40.553Z,15.93
2017-11-29T11:03:43.082Z,16.67
2017-11-29T11:04:45.600Z,16.33
2017-11-29T11:05:48.142Z,14.23
2017-11-29T11:06:50.662Z,14.68
2017-11-29T11:07:53.234Z,18.85
2017-11-29T11:08:55.754Z,19.10
2017-11-29T11:09:58.269Z,16.20
2017-11-29T11:11:00.884Z,13.48
2017-11-29T11:12:03.413Z,14.07
2017-11-29T11:13:05.988Z,13.23
2017-11-29T11:14:09.279Z,12.95
2017-11-29T11:15:12.569Z,16.37
2017-11-29T11:16:15.082Z,14.02
2017-11-29T11:17:17.615Z,12.85
2017-11-29T11:18:20.171Z,15.43
2017-11-29T11:19:22.696Z,13.38
2017-11-29T11:20:25.258Z,17.33
2017-11-29T11:21:27.775Z,16.98
2017-11-29T11:22:30.293Z,13.77
2017-11-29T11:23:32.831Z,13.95
2017-11-29T11:24:35.386Z,15.13
2017-11-29T11:25:37.945Z,14.48
2017-11-29T11:26:40.482Z,12.80
2017-11-29T11:27:43.771Z,13.52
2017-11-29T11:28:47.054Z,13.70
2017-11-29T11:29:49.644Z,14.38
2017-11-29T11:30:52.212Z,17.67
2017-11-29T11:31:54.735Z,13.75
2017-11-29T11:32:57.250Z,17.20
2017-11-29T11:33:59.816Z,15.95
2017-11-29T11:35:02.351Z,12.05
2017-11-29T11:36:05.687Z,13.38
2017-11-29T11:37:08.207Z,16.62
2017-11-29T11:38:10.731Z,13.93
2017-11-29T11:39:13.270Z,12.88
2017-11-29T11:40:15.790Z,15.35
2017-11-29T11:41:19.118Z,13.90
2017-11-29T11:42:21.679Z,13.10
2017-11-29T11:43:24.223Z,12.57
2017-11-29T11:44:27.515Z,14.15
2017-11-29T11:45:30.040Z,13.73
2017-11-29T11:46:32.617Z,12.10
2017-11-29T11:47:35.174Z,13.18
2017-11-29T11:48:37.712Z,14.80
2017-11-29T11:49:40.235Z,13.50
2017-11-29T11:50:43.527Z,13.70
2017-11-29T11:51:46.047Z,13.50
2017-11-29T11:52:48.594Z,16.10
2017-11-29T11:53:51.241Z,16.02
2017-11-29T11:54:53.754Z,12.75
2017-11-29T11:55:56.280Z,13.25
2017-11-29T11:56:58.802Z,12.25
2017-11-29T11:58:02.119Z,12.15
2017-11-29T11:59:04.640Z,13.90
2017-11-29T12:00:07.187Z,11.32
2017-11-29T12:01:10.474Z,12.10
2017-11-29T12:02:12.998Z,15.32
2017-11-29T12:03:15.550Z,13.43
2017-11-29T12:04:18.840Z,12.65
2017-11-29T12:05:21.351Z,11.32
2017-11-29T12:06:23.878Z,13.10
2017-11-29T12:07:26.439Z,15.27
2017-11-29T12:08:28.969Z,11.27
2017-11-29T12:09:31.487Z,18.33
2017-11-29T12:10:34.022Z,10.52
2017-11-29T12:11:37.320Z,12.23
2017-11-29T12:12:39.879Z,15.77
2017-11-29T12:13:43.163Z,13.82
2017-11-29T12:14:46.466Z,13.60
2017-11-29T12:15:48.987Z,10.20
2017-11-29T12:16:51.516Z,12.20
2017-11-29T12:17:54.072Z,11.70
2017-11-29T12:18:56.590Z,14.75
2017-11-29T12:19:59.107Z,14.95
2017-11-29T12:21:01.614Z,14.23
2017-11-29T12:22:04.163Z,12.63
2017-11-29T12:23:06.725Z,11.50
2017-11-29T12:24:09.245Z,16.25
2017-11-29T12:25:11.770Z,12.05
2017-11-29T12:26:14.393Z,13.30
2017-11-29T12:27:16.923Z,14.07
2017-11-29T12:28:20.239Z,22.62
2017-11-29T12:29:22.763Z,15.77
2017-11-29T12:30:25.280Z,16.60
2017-11-29T12:31:27.794Z,13.35
2017-11-29T12:32:30.326Z,15.30
2017-11-29T12:33:32.884Z,13.75
2017-11-29T12:34:35.402Z,12.02
2017-11-29T12:35:38.685Z,12.75
2017-11-29T12:36:41.974Z,14.40
2017-11-29T12:37:45.253Z,13.48
2017-11-29T12:38:48.590Z,14.85
2017-11-29T12:39:51.111Z,11.48
2017-11-29T12:40:54.401Z,20.02
2017-11-29T12:41:56.940Z,10.40
2017-11-29T12:42:59.461Z,11.95
2017-11-29T12:44:02.007Z,12.40
2017-11-29T12:45:04.572Z,11.95
2017-11-29T12:46:07.253Z,14.80
2017-11-29T12:47:09.768Z,11.95
2017-11-29T12:50:04.992Z,12.70
2017-11-29T12:51:16.816Z,15.80
2017-11-29T12:52:19.337Z,12.80
2017-11-29T12:53:21.863Z,14.10
2017-11-29T12:54:24.377Z,13.45
2017-11-29T12:55:27.674Z,11.88
2017-11-29T12:56:30.991Z,11.95
2017-11-29T12:57:33.519Z,13.48
2017-11-29T12:58:36.807Z,13.02
2017-11-29T12:59:40.082Z,12.50
2017-11-29T13:00:43.414Z,15.10
2017-11-29T13:01:45.948Z,14.00
2017-11-29T13:02:48.503Z,15.00
2017-11-29T13:03:51.832Z,13.52
2017-11-29T13:04:54.355Z,11.85
2017-11-29T13:05:57.629Z,11.27
2017-11-29T13:07:00.915Z,12.02
2017-11-29T13:08:04.205Z,15.10
2017-11-29T13:09:07.523Z,12.93
2017-11-29T13:10:10.818Z,12.43
2017-11-29T13:11:13.330Z,13.05
2017-11-29T13:12:16.610Z,10.38
2017-11-29T13:13:19.893Z,14.13
2017-11-29T13:14:23.232Z,14.77
2017-11-29T13:15:25.762Z,12.82
2017-11-29T13:16:28.285Z,13.32
2017-11-29T13:17:30.816Z,14.87
2017-11-29T13:18:33.347Z,15.00
2017-11-29T13:19:36.681Z,15.15
2017-11-29T13:20:39.221Z,14.40
2017-11-29T13:21:41.874Z,15.70
2017-11-29T13:22:45.190Z,12.27
2017-11-29T13:23:47.710Z,15.25
2017-11-29T13:24:50.265Z,16.15
2017-11-29T13:25:52.789Z,14.93
2017-11-29T13:26:55.318Z,15.43
2017-11-29T13:27:58.629Z,20.67
2017-11-29T13:29:01.147Z,18.05
2017-11-29T13:30:03.667Z,15.00
2017-11-29T13:31:06.194Z,16.75
2017-11-29T13:32:09.666Z,16.25
2017-11-29T13:33:12.187Z,11.25
2017-11-29T13:34:14.708Z,13.48
2017-11-29T13:35:17.237Z,12.90